createdAt,value
2023-01-27T00:01:26.661Z,100694.50
2023-01-27T00:04:29.581Z,100697.16
2023-01-27T00:07:32.368Z,100681.13
2023-01-27T00:10:35.092Z,100701.59
2023-01-27T00:13:38.203Z,100690.00
2023-01-27T00:16:40.957Z,100634.97
2023-01-27T00:19:44.628Z,100688.25
2023-01-27T00:23:05.035Z,100677.56
2023-01-27T00:26:10.426Z,100682.06
2023-01-27T00:29:14.464Z,100689.16
2023-01-27T00:32:34.496Z,100677.56
2023-01-27T00:35:37.236Z,100674.91
2023-01-27T00:38:41.878Z,100687.38
2023-01-27T00:41:44.740Z,100682.91
2023-01-27T00:45:02.743Z,100628.72
2023-01-27T00:48:06.126Z,100676.69
2023-01-27T00:51:08.980Z,100684.66
2023-01-27T00:54:11.979Z,100681.09
2023-01-27T00:57:14.823Z,100684.66
2023-01-27T01:00:19.450Z,100676.66
2023-01-27T01:03:22.640Z,100673.09
2023-01-27T01:06:25.852Z,100673.09
2023-01-27T01:09:28.933Z,100673.09
2023-01-27T01:12:31.752Z,100683.78
2023-01-27T01:15:37.817Z,100671.34
2023-01-27T01:18:40.608Z,100679.31
2023-01-27T01:21:43.383Z,100693.56
2023-01-27T01:24:46.069Z,100673.13
2023-01-27T01:27:48.783Z,100682.88
2023-01-27T01:30:53.126Z,100682.84
2023-01-27T01:33:55.809Z,100689.09
2023-01-27T01:36:58.497Z,100685.53
2023-01-27T01:40:02.019Z,100689.97
2023-01-27T01:43:05.537Z,100683.75
2023-01-27T01:46:12.163Z,100684.66
2023-01-27T01:49:17.099Z,100684.66
2023-01-27T01:52:22.900Z,100683.75
2023-01-27T01:55:25.892Z,100681.06
2023-01-27T01:58:29.121Z,100673.97
2023-01-27T02:01:33.519Z,100626.03
2023-01-27T02:04:43.568Z,100675.75
2023-01-27T02:07:54.445Z,100669.53
2023-01-27T02:10:57.940Z,100682.00
2023-01-27T02:14:02.396Z,100670.41
2023-01-27T02:17:06.973Z,100674.88
2023-01-27T02:20:18.135Z,100676.66
2023-01-27T02:23:44.160Z,100671.31
2023-01-27T02:26:48.325Z,100667.78
2023-01-27T02:29:51.017Z,100677.56
2023-01-27T02:32:53.828Z,100674.03
2023-01-27T02:36:02.118Z,100662.41
2023-01-27T02:39:09.307Z,100674.94
2023-01-27T02:42:16.492Z,100639.38
2023-01-27T02:45:19.221Z,100643.84
2023-01-27T02:48:21.883Z,100666.03
2023-01-27T02:51:24.980Z,100662.50
2023-01-27T02:54:29.332Z,100670.50
2023-01-27T02:57:33.746Z,100674.94
2023-01-27T03:00:36.645Z,100659.84
2023-01-27T03:03:43.961Z,100662.47
2023-01-27T03:06:46.784Z,100639.38
2023-01-27T03:09:49.525Z,100681.13
2023-01-27T03:12:53.681Z,100662.50
2023-01-27T03:16:17.393Z,100690.94
2023-01-27T03:19:20.428Z,100690.91
2023-01-27T03:22:23.170Z,100690.94
2023-01-27T03:25:25.902Z,100690.97
2023-01-27T03:28:30.035Z,100699.84
2023-01-27T03:31:32.795Z,100690.03
2023-01-27T03:34:35.685Z,100674.94
2023-01-27T03:37:55.971Z,100701.59
2023-01-27T03:41:16.449Z,100704.28
2023-01-27T03:44:38.214Z,100698.06
2023-01-27T03:47:40.958Z,100688.28
2023-01-27T03:50:44.165Z,100699.81
2023-01-27T03:53:47.531Z,100707.81
2023-01-27T03:56:50.387Z,100701.56
2023-01-27T03:59:54.905Z,100699.78
2023-01-27T04:03:15.033Z,100714.06
2023-01-27T04:06:38.916Z,100708.72
2023-01-27T04:09:41.577Z,100716.75
2023-01-27T04:12:44.276Z,100719.41
2023-01-27T04:15:48.300Z,100712.31
2023-01-27T04:18:50.998Z,100708.75
2023-01-27T04:21:54.143Z,100709.66
2023-01-27T04:24:56.837Z,100709.69
2023-01-27T04:27:59.573Z,100711.44
2023-01-27T04:31:03.663Z,100718.56
2023-01-27T04:34:06.559Z,100721.25
2023-01-27T04:37:10.323Z,100708.78
2023-01-27T04:40:14.206Z,100728.34
2023-01-27T04:43:16.888Z,100728.38
2023-01-27T04:46:21.018Z,100672.34
2023-01-27T04:49:23.844Z,100728.34
2023-01-27T04:52:26.500Z,100726.56
2023-01-27T04:55:29.251Z,100696.34
2023-01-27T04:58:32.127Z,100737.22
2023-01-27T05:01:36.172Z,100734.53
2023-01-27T05:04:39.526Z,100742.53
2023-01-27T05:07:42.174Z,100735.44
2023-01-27T05:10:45.570Z,100743.44
2023-01-27T05:13:49.065Z,100746.13
2023-01-27T05:16:53.153Z,100714.09
2023-01-27T05:19:55.843Z,100746.09
2023-01-27T05:23:19.085Z,100745.22
2023-01-27T05:26:23.403Z,100741.69
2023-01-27T05:29:26.341Z,100740.78
2023-01-27T05:32:30.436Z,100728.28
2023-01-27T05:35:33.889Z,100715.00
2023-01-27T05:38:36.816Z,100733.66
2023-01-27T05:41:39.724Z,100691.03
2023-01-27T05:44:42.431Z,100732.78
2023-01-27T05:47:49.970Z,100741.69
2023-01-27T05:50:56.603Z,100738.13
2023-01-27T05:53:59.318Z,100715.91
2023-01-27T05:57:02.110Z,100738.13
2023-01-27T06:00:05.751Z,100736.34
2023-01-27T06:03:10.029Z,100743.47
2023-01-27T06:06:14.191Z,100742.59
2023-01-27T06:09:16.885Z,100750.59
2023-01-27T06:12:19.623Z,100746.16
2023-01-27T06:15:22.343Z,100753.28
2023-01-27T06:18:26.429Z,100751.50
2023-01-27T06:21:29.169Z,100756.84
2023-01-27T06:24:31.888Z,100701.72
2023-01-27T06:27:34.652Z,100763.94
2023-01-27T06:30:38.889Z,100763.97
2023-01-27T06:33:43.105Z,100715.03
2023-01-27T06:36:45.747Z,100771.06
2023-01-27T06:39:48.411Z,100776.41
2023-01-27T06:42:51.167Z,100776.41
2023-01-27T06:45:54.672Z,100774.63
2023-01-27T06:48:58.891Z,100774.59
2023-01-27T06:52:01.586Z,100734.59
2023-01-27T06:55:05.965Z,100776.41
2023-01-27T06:58:09.547Z,100784.41
2023-01-27T07:01:12.508Z,100792.41
2023-01-27T07:04:16.597Z,100787.09
2023-01-27T07:07:20.040Z,100759.50
2023-01-27T07:10:22.790Z,100791.53
2023-01-27T07:13:25.478Z,100796.00
2023-01-27T07:16:30.081Z,100755.97
2023-01-27T07:19:35.238Z,100803.97
2023-01-27T07:22:38.668Z,100807.53
2023-01-27T07:25:41.358Z,100818.22
2023-01-27T07:28:44.060Z,100808.44
2023-01-27T07:31:46.812Z,100805.75
2023-01-27T07:34:50.991Z,100811.97
2023-01-27T07:37:53.719Z,100822.66
2023-01-27T07:40:56.606Z,100822.66
2023-01-27T07:43:59.307Z,100830.66
2023-01-27T07:47:02.155Z,100775.53
2023-01-27T07:50:07.178Z,100828.84
2023-01-27T07:53:11.964Z,100835.09
2023-01-27T07:56:14.749Z,100819.09
2023-01-27T07:59:17.633Z,100840.47
2023-01-27T08:02:20.477Z,100791.56
2023-01-27T08:05:25.339Z,100840.41
2023-01-27T08:08:28.122Z,100844.88
2023-01-27T08:11:32.806Z,100844.00
2023-01-27T08:14:35.494Z,100841.28
2023-01-27T08:17:38.247Z,100840.41
2023-01-27T08:20:45.142Z,100827.91
2023-01-27T08:23:51.490Z,100803.91
2023-01-27T08:26:54.606Z,100847.50
2023-01-27T08:29:58.591Z,100827.03
2023-01-27T08:33:02.830Z,100802.13
2023-01-27T08:36:10.695Z,100848.41
2023-01-27T08:39:13.830Z,100841.25
2023-01-27T08:42:16.576Z,100818.97
2023-01-27T08:45:19.470Z,100849.19
2023-01-27T08:48:22.836Z,100849.22
2023-01-27T08:51:27.242Z,100816.28
2023-01-27T08:54:30.012Z,100792.22
2023-01-27T08:57:34.708Z,100788.69
2023-01-27T09:00:39.223Z,100851.72
2023-01-27T09:03:42.303Z,100854.38
2023-01-27T09:06:48.365Z,100852.56
2023-01-27T09:09:58.175Z,100857.84
2023-01-27T09:13:06.953Z,100861.44
2023-01-27T09:16:09.865Z,100856.97
2023-01-27T09:19:13.480Z,100845.38
2023-01-27T09:22:17.636Z,100846.31
2023-01-27T09:25:20.463Z,100825.00
2023-01-27T09:28:23.165Z,100859.69
2023-01-27T09:31:25.927Z,100875.72
2023-01-27T09:34:29.081Z,100867.72
2023-01-27T09:37:35.045Z,100881.06
2023-01-27T09:40:51.724Z,100877.44
2023-01-27T09:44:12.108Z,100881.94
2023-01-27T09:47:38.479Z,100879.28
2023-01-27T09:50:45.526Z,100875.66
2023-01-27T09:54:07.568Z,100868.53
2023-01-27T09:57:17.294Z,100870.25
2023-01-27T10:00:32.716Z,100830.16
2023-01-27T10:03:59.090Z,100855.84
2023-01-27T10:07:20.598Z,100867.41
2023-01-27T10:10:36.131Z,100859.44
2023-01-27T10:13:52.302Z,100834.59
2023-01-27T10:17:18.982Z,100867.50
2023-01-27T10:20:31.591Z,100856.75
2023-01-27T10:23:51.094Z,100846.16
2023-01-27T10:26:59.203Z,100857.66
2023-01-27T10:30:09.456Z,100861.25
2023-01-27T10:33:18.949Z,100863.00
2023-01-27T10:36:28.349Z,100851.44
2023-01-27T10:39:44.101Z,100855.97
2023-01-27T10:42:55.766Z,100829.31
2023-01-27T10:46:06.238Z,100857.72
2023-01-27T10:49:14.738Z,100861.16
2023-01-27T10:52:21.988Z,100855.72
2023-01-27T10:55:29.395Z,100850.25
2023-01-27T10:58:46.844Z,100844.88
2023-01-27T11:01:54.252Z,100799.56
2023-01-27T11:05:02.243Z,100834.16
2023-01-27T11:08:09.341Z,100805.72
2023-01-27T11:11:30.800Z,100805.75
2023-01-27T11:14:45.728Z,100821.75
2023-01-27T11:17:53.732Z,100835.19
2023-01-27T11:21:01.180Z,100827.00
2023-01-27T11:24:17.382Z,100818.16
2023-01-27T11:27:34.116Z,100824.34
2023-01-27T11:30:47.892Z,100801.03
2023-01-27T11:33:58.798Z,100769.00
2023-01-27T11:37:09.767Z,100768.88
2023-01-27T11:40:18.855Z,100823.88
2023-01-27T11:43:26.694Z,100820.28
2023-01-27T11:46:32.384Z,100825.72
2023-01-27T11:49:39.983Z,100777.72
2023-01-27T11:52:44.130Z,100826.59
2023-01-27T11:55:50.536Z,100822.06
2023-01-27T11:58:58.761Z,100819.38
2023-01-27T12:02:19.030Z,100822.75
2023-01-27T12:05:30.143Z,100817.31
2023-01-27T12:08:42.186Z,100832.66
2023-01-27T12:11:44.891Z,100824.63
2023-01-27T12:14:49.646Z,100826.59
2023-01-27T12:17:57.638Z,100822.84
2023-01-27T12:21:02.309Z,100806.78
2023-01-27T12:24:07.273Z,100787.91
2023-01-27T12:27:21.080Z,100803.03
2023-01-27T12:30:26.991Z,100795.81
2023-01-27T12:33:34.552Z,100802.84
2023-01-27T12:36:40.391Z,100791.25
2023-01-27T12:39:47.481Z,100788.28
2023-01-27T12:42:51.870Z,100789.16
2023-01-27T12:46:19.510Z,100794.41
2023-01-27T12:49:23.877Z,100784.41
2023-01-27T12:52:26.582Z,100776.53
2023-01-27T12:55:31.626Z,100779.09
2023-01-27T12:58:40.232Z,100787.09
2023-01-27T13:01:44.874Z,100782.53
2023-01-27T13:04:54.185Z,100781.56
2023-01-27T13:07:56.995Z,100778.97
2023-01-27T13:11:02.293Z,100776.16
2023-01-27T13:14:09.056Z,100760.38
2023-01-27T13:17:37.726Z,100773.00
2023-01-27T13:20:46.376Z,100757.94
2023-01-27T13:23:50.193Z,100775.63
2023-01-27T13:26:53.746Z,100768.22
2023-01-27T13:30:01.836Z,100772.00
2023-01-27T13:33:20.741Z,100777.44
2023-01-27T13:36:33.054Z,100772.06
2023-01-27T13:39:55.066Z,100724.09
2023-01-27T13:43:06.590Z,100772.06
2023-01-27T13:46:17.423Z,100757.81
2023-01-27T13:49:31.260Z,100767.69
2023-01-27T13:52:38.185Z,100735.75
2023-01-27T13:55:53.295Z,100761.44
2023-01-27T13:59:04.951Z,100769.53
2023-01-27T14:02:36.977Z,100771.34
2023-01-27T14:05:50.292Z,100765.22
2023-01-27T14:09:39.746Z,100768.66
2023-01-27T14:12:56.764Z,100763.19
2023-01-27T14:16:09.650Z,100766.75
2023-01-27T14:19:26.894Z,100768.41
2023-01-27T14:22:37.240Z,100785.38
2023-01-27T14:25:48.106Z,100780.84
2023-01-27T14:29:00.882Z,100782.66
2023-01-27T14:32:11.921Z,100788.13
2023-01-27T14:35:36.652Z,100794.38
2023-01-27T14:38:45.360Z,100805.06
2023-01-27T14:41:55.542Z,100796.09
2023-01-27T14:45:06.997Z,100807.59
2023-01-27T14:48:24.407Z,100806.59
2023-01-27T14:51:36.477Z,100813.06
2023-01-27T14:54:58.619Z,100813.78
2023-01-27T14:58:18.455Z,100807.69
2023-01-27T15:01:35.027Z,100827.41
2023-01-27T15:04:48.440Z,100814.94
2023-01-27T15:07:59.064Z,100830.97
2023-01-27T15:11:15.369Z,100822.94
2023-01-27T15:14:42.540Z,100836.44
2023-01-27T15:17:59.879Z,100841.78
2023-01-27T15:21:18.569Z,100840.03
2023-01-27T15:24:51.480Z,100848.97
2023-01-27T15:27:55.143Z,100838.28
2023-01-27T15:31:24.167Z,100846.31
2023-01-27T15:34:29.590Z,100853.47
2023-01-27T15:37:32.259Z,100847.19
2023-01-27T15:41:08.144Z,100850.97
2023-01-27T15:44:17.023Z,100815.53
2023-01-27T15:47:26.276Z,100841.22
2023-01-27T15:50:32.937Z,100857.25
2023-01-27T15:53:39.239Z,100855.44
2023-01-27T15:56:52.187Z,100851.97
2023-01-27T15:59:59.517Z,100850.28
2023-01-27T16:03:24.520Z,100870.75
2023-01-27T16:06:27.395Z,100866.41
2023-01-27T16:09:36.370Z,100868.09
2023-01-27T16:12:42.530Z,100877.03
2023-01-27T16:15:45.346Z,100806.94
2023-01-27T16:18:54.533Z,100846.00
2023-01-27T16:22:02.195Z,100877.19
2023-01-27T16:25:20.238Z,100854.94
2023-01-27T16:28:28.488Z,100870.13
2023-01-27T16:31:32.876Z,100882.56
2023-01-27T16:34:42.487Z,100888.81
2023-01-27T16:38:01.045Z,100877.22
2023-01-27T16:41:16.635Z,100891.59
2023-01-27T16:44:23.288Z,100873.84
2023-01-27T16:47:29.044Z,100891.63
2023-01-27T16:50:35.968Z,100903.28
2023-01-27T16:53:38.920Z,100877.47
2023-01-27T16:56:41.775Z,100894.38
2023-01-27T16:59:44.494Z,100900.56
2023-01-27T17:02:48.016Z,100898.78
2023-01-27T17:05:53.857Z,100897.88
2023-01-27T17:08:56.739Z,100899.72
2023-01-27T17:12:00.098Z,100882.81
2023-01-27T17:15:18.551Z,100898.03
2023-01-27T17:18:21.702Z,100906.94
2023-01-27T17:21:35.853Z,100886.50
2023-01-27T17:24:42.153Z,100900.78
2023-01-27T17:27:46.128Z,100909.66
2023-01-27T17:30:50.688Z,100883.97
2023-01-27T17:34:02.318Z,100919.47
2023-01-27T17:37:16.380Z,100926.66
2023-01-27T17:40:22.061Z,100895.59
2023-01-27T17:43:29.118Z,100920.50
2023-01-27T17:46:35.008Z,100922.31
2023-01-27T17:49:40.680Z,100922.38
2023-01-27T17:52:52.485Z,100928.56
2023-01-27T17:55:56.800Z,100933.88
2023-01-27T17:59:03.325Z,100938.31
2023-01-27T18:02:14.715Z,100939.16
2023-01-27T18:05:25.017Z,100929.41
2023-01-27T18:08:34.775Z,100934.75
2023-01-27T18:11:39.013Z,100952.63
2023-01-27T18:14:41.787Z,100917.16
2023-01-27T18:17:44.857Z,100948.22
2023-01-27T18:20:53.670Z,100946.38
2023-01-27T18:24:00.127Z,100891.31
2023-01-27T18:27:03.791Z,100934.06
2023-01-27T18:30:13.049Z,100950.00
2023-01-27T18:33:16.847Z,100961.56
2023-01-27T18:36:22.504Z,100961.63
2023-01-27T18:39:38.064Z,100920.75
2023-01-27T18:42:40.758Z,100968.84
2023-01-27T18:45:44.906Z,100960.84
2023-01-27T18:48:48.504Z,100937.72
2023-01-27T18:51:51.542Z,100971.56
2023-01-27T18:54:59.783Z,100976.97
2023-01-27T18:58:02.575Z,100984.06
2023-01-27T19:01:07.968Z,100978.72
2023-01-27T19:04:12.925Z,100989.34
2023-01-27T19:07:17.442Z,100991.16
2023-01-27T19:10:24.945Z,100999.22
2023-01-27T19:13:27.690Z,100995.63
2023-01-27T19:16:33.523Z,100996.50
2023-01-27T19:19:37.480Z,100983.19
2023-01-27T19:22:40.159Z,100984.94
2023-01-27T19:25:46.964Z,100994.75
2023-01-27T19:28:52.775Z,100968.97
2023-01-27T19:31:55.659Z,100998.28
2023-01-27T19:34:58.353Z,100902.22
2023-01-27T19:38:03.858Z,100996.47
2023-01-27T19:41:10.615Z,100976.94
2023-01-27T19:44:13.960Z,100939.59
2023-01-27T19:47:16.645Z,101012.56
2023-01-27T19:50:22.685Z,101003.72
2023-01-27T19:53:25.404Z,101015.31
2023-01-27T19:56:32.937Z,101023.34
2023-01-27T19:59:35.698Z,100952.13
2023-01-27T20:02:39.435Z,101026.06
2023-01-27T20:05:42.136Z,101010.03
2023-01-27T20:08:45.409Z,101011.88
2023-01-27T20:11:49.495Z,101033.22
2023-01-27T20:14:52.344Z,101026.06
2023-01-27T20:17:56.150Z,101026.97
2023-01-27T20:20:58.877Z,101033.22
2023-01-27T20:24:02.588Z,100926.47
2023-01-27T20:27:06.783Z,101035.84
2023-01-27T20:30:15.098Z,101022.50
2023-01-27T20:33:17.926Z,100928.22
2023-01-27T20:36:22.471Z,101019.00
2023-01-27T20:39:25.186Z,101044.00
2023-01-27T20:42:30.254Z,101043.09
2023-01-27T20:45:33.648Z,101035.06
2023-01-27T20:48:36.547Z,101028.84
2023-01-27T20:51:39.293Z,101032.38
2023-01-27T20:54:42.165Z,101022.59
2023-01-27T20:57:46.797Z,101020.81
2023-01-27T21:00:49.778Z,101048.41
2023-01-27T21:03:52.661Z,101048.41
2023-01-27T21:06:55.458Z,101026.13
2023-01-27T21:09:59.089Z,101054.66
2023-01-27T21:13:03.209Z,101051.09
2023-01-27T21:16:06.683Z,101046.63
2023-01-27T21:19:09.683Z,101031.44
2023-01-27T21:22:12.508Z,101035.88
2023-01-27T21:25:15.630Z,101047.47
2023-01-27T21:28:20.388Z,101025.28
2023-01-27T21:31:27.783Z,101055.50
2023-01-27T21:34:30.837Z,101059.97
2023-01-27T21:37:35.956Z,101044.78
2023-01-27T21:40:40.146Z,101027.91
2023-01-27T21:44:02.451Z,101047.47
2023-01-27T21:47:06.353Z,101052.88
2023-01-27T21:50:11.529Z,101056.44
2023-01-27T21:53:14.202Z,101053.78
2023-01-27T21:56:16.895Z,101007.50
2023-01-27T21:59:20.932Z,101065.34
2023-01-27T22:02:24.859Z,101069.81
2023-01-27T22:05:29.179Z,101068.03
2023-01-27T22:08:31.957Z,101062.66
2023-01-27T22:11:34.673Z,101053.72
2023-01-27T22:14:38.910Z,101058.19
2023-01-27T22:17:42.164Z,101035.97
2023-01-27T22:20:44.965Z,101038.63
2023-01-27T22:23:47.974Z,101073.38
2023-01-27T22:26:50.712Z,101055.50
2023-01-27T22:29:54.788Z,101053.72
2023-01-27T22:32:58.656Z,101056.34
2023-01-27T22:36:02.283Z,101049.25
2023-01-27T22:39:05.641Z,100949.59
2023-01-27T22:42:08.320Z,101054.59
2023-01-27T22:45:13.401Z,101063.50
2023-01-27T22:48:16.201Z,101051.00
2023-01-27T22:51:19.158Z,101058.13
2023-01-27T22:54:22.062Z,101030.53
2023-01-27T22:57:30.089Z,100943.28
2023-01-27T23:00:34.176Z,101037.56
2023-01-27T23:03:37.156Z,101038.47
2023-01-27T23:06:39.836Z,101033.13
2023-01-27T23:09:42.569Z,100984.19
2023-01-27T23:12:45.406Z,101006.44
2023-01-27T23:15:49.472Z,101011.72
2023-01-27T23:18:52.364Z,101051.84
2023-01-27T23:21:55.119Z,101038.41
2023-01-27T23:24:57.873Z,101042.00
2023-01-27T23:28:00.758Z,101039.31
2023-01-27T23:31:05.497Z,101037.53
2023-01-27T23:34:08.188Z,101041.09
2023-01-27T23:37:10.882Z,101040.22
2023-01-27T23:40:14.116Z,101025.09
2023-01-27T23:43:16.790Z,101051.81
2023-01-27T23:46:20.886Z,101057.19
2023-01-27T23:49:23.596Z,101055.41
2023-01-27T23:52:26.516Z,101054.50
2023-01-27T23:55:29.351Z,101050.94
2023-01-27T23:58:32.125Z,101045.56
